Time;durP1;ratioP1;P1;durP2;ratioP2;P2;SDS_P1;SDS_P2;PMS_P1;PMS_P2;Temp;Humidity;BMP_temperature;BMP_pressure;BME280_temperature;BME280_humidity;BME280_pressure;Samples;Min_cycle;Max_cycle;Signal;HPM_P1;HPM_P2
2021/12/05 00:18:30;;;;;;;31.00;12.65;;;;;;;;;;4919048;28;99518;-71
2021/12/05 00:23:40;;;;;;;28.98;11.77;;;;;;;;;;4916062;28;99618;-71
2021/12/05 00:26:09;;;;;;;28.27;11.00;;;;;;;;;;4916265;28;98546;-70
2021/12/05 00:29:08;;;;;;;30.80;11.52;;;;;;;;;;4916072;28;98430;-72
2021/12/05 00:48:19;;;;;;;23.08;8.70;;;;;;;;;;4877862;28;99694;-72
2021/12/05 01:01:49;;;;;;;29.33;7.85;;;;;;;;;;4877194;28;100798;-72
2021/12/05 01:04:45;;;;;;;21.52;7.75;;;;;;;;;;4880740;28;99095;-72
2021/12/05 01:10:28;;;;;;;29.80;7.97;;;;;;;;;;4850618;28;100099;-72
2021/12/05 01:15:52;;;;;;;22.75;6.88;;;;;;;;;;4841964;29;100912;-72
2021/12/05 01:18:20;;;;;;;22.20;7.25;;;;;;;;;;4858724;29;98969;-71
2021/12/05 01:20:52;;;;;;;21.15;7.25;;;;;;;;;;4859391;29;97774;-73
2021/12/05 01:24:00;;;;;;;22.17;6.82;;;;;;;;;;4841649;29;100526;-72
2021/12/05 01:26:20;;;;;;;24.58;7.30;;;;;;;;;;4856075;29;99639;-72
2021/12/05 01:29:55;;;;;;;23.25;7.50;;;;;;;;;;4844638;29;99907;-73
2021/12/05 01:34:44;;;;;;;18.88;6.63;;;;;;;;;;4831677;29;98565;-73
2021/12/05 01:37:25;;;;;;;21.58;6.75;;;;;;;;;;4841953;29;101573;-73
2021/12/05 01:40:04;;;;;;;21.10;7.00;;;;;;;;;;4840785;29;102506;-73
2021/12/05 01:48:25;;;;;;;14.65;6.05;;;;;;;;;;4841927;29;100427;-72
2021/12/05 01:51:18;;;;;;;19.08;5.72;;;;;;;;;;4841461;29;98412;-72
2021/12/05 01:56:40;;;;;;;28.98;7.13;;;;;;;;;;4840433;29;99196;-73
2021/12/05 01:59:20;;;;;;;18.85;6.90;;;;;;;;;;4841514;29;102093;-72
2021/12/05 02:16:38;;;;;;;16.45;5.68;;;;;;;;;;4877445;28;99470;-72
2021/12/05 02:38:03;;;;;;;30.50;5.88;;;;;;;;;;4913966;28;101934;-72
2021/12/05 02:43:19;;;;;;;18.38;5.53;;;;;;;;;;4917474;28;97754;-72
2021/12/05 02:45:47;;;;;;;16.10;5.32;;;;;;;;;;4914754;28;99592;-71
2021/12/05 02:48:15;;;;;;;10.80;4.93;;;;;;;;;;4914733;28;98350;-70
2021/12/05 02:50:42;;;;;;;15.15;5.13;;;;;;;;;;4914416;28;99080;-71
2021/12/05 02:53:29;;;;;;;24.95;6.00;;;;;;;;;;4913885;28;99465;-72
2021/12/05 02:55:55;;;;;;;22.92;5.30;;;;;;;;;;4914733;28;98305;-70
2021/12/05 02:58:42;;;;;;;18.23;4.75;;;;;;;;;;4913523;28;102258;-72
2021/12/05 03:01:20;;;;;;;14.05;5.03;;;;;;;;;;4912795;28;101757;-72
2021/12/05 03:03:47;;;;;;;21.58;5.05;;;;;;;;;;4913120;28;98490;-72
2021/12/05 03:06:18;;;;;;;18.33;5.50;;;;;;;;;;4918848;28;99328;-71
2021/12/05 03:08:46;;;;;;;18.73;5.27;;;;;;;;;;4917350;28;97747;-73
2021/12/05 03:11:13;;;;;;;15.00;4.72;;;;;;;;;;4916914;28;100528;-73
2021/12/05 03:13:40;;;;;;;20.27;5.25;;;;;;;;;;4917261;28;100282;-71
2021/12/05 03:16:12;;;;;;;27.10;5.20;;;;;;;;;;4900128;28;99312;-73
2021/12/05 03:18:39;;;;;;;13.43;4.35;;;;;;;;;;4917791;28;100432;-72
2021/12/05 03:21:07;;;;;;;18.45;4.35;;;;;;;;;;4900318;28;102079;-72
2021/12/05 03:23:40;;;;;;;15.00;4.45;;;;;;;;;;4900574;28;98504;-71
2021/12/05 03:26:07;;;;;;;20.17;4.70;;;;;;;;;;4903404;28;101894;-72
2021/12/05 03:28:35;;;;;;;13.50;4.60;;;;;;;;;;4900240;28;98587;-72
2021/12/05 03:31:03;;;;;;;14.55;4.20;;;;;;;;;;4917689;28;99240;-72
2021/12/05 03:33:29;;;;;;;18.95;4.60;;;;;;;;;;4900637;28;99634;-72
2021/12/05 03:35:56;;;;;;;14.40;4.15;;;;;;;;;;4917702;28;99454;-72
2021/12/05 03:38:23;;;;;;;19.73;4.40;;;;;;;;;;4900382;28;101860;-72
2021/12/05 03:40:50;;;;;;;20.73;4.63;;;;;;;;;;4898888;28;103255;-72
2021/12/05 03:43:19;;;;;;;16.88;4.63;;;;;;;;;;4900421;28;98466;-72
2021/12/05 03:45:47;;;;;;;21.13;4.38;;;;;;;;;;4900219;28;101791;-71
2021/12/05 03:48:15;;;;;;;20.55;4.43;;;;;;;;;;4920248;28;98971;-72
2021/12/05 03:50:43;;;;;;;16.40;4.22;;;;;;;;;;4900235;28;101597;-72
2021/12/05 03:53:13;;;;;;;18.45;5.00;;;;;;;;;;4899780;28;101644;-72
2021/12/05 03:55:41;;;;;;;17.38;4.60;;;;;;;;;;4899905;28;98510;-72
2021/12/05 03:58:07;;;;;;;14.35;4.40;;;;;;;;;;4917811;28;99298;-71
2021/12/05 04:00:38;;;;;;;16.40;4.22;;;;;;;;;;4899461;28;102206;-71
2021/12/05 04:03:07;;;;;;;18.77;4.70;;;;;;;;;;4899985;28;98510;-72
2021/12/05 04:05:35;;;;;;;18.23;4.90;;;;;;;;;;4915521;28;102240;-71
2021/12/05 04:08:07;;;;;;;20.52;5.35;;;;;;;;;;4899000;28;102090;-72
2021/12/05 04:10:34;;;;;;;14.45;4.15;;;;;;;;;;4903338;28;98533;-72
2021/12/05 04:13:02;;;;;;;16.95;4.68;;;;;;;;;;4916588;28;99486;-72
2021/12/05 04:15:31;;;;;;;17.60;4.32;;;;;;;;;;4899950;28;98491;-74
2021/12/05 04:17:57;;;;;;;18.73;4.50;;;;;;;;;;4883356;28;99842;-72
2021/12/05 04:20:25;;;;;;;15.32;3.85;;;;;;;;;;4899282;28;102027;-73
2021/12/05 04:22:52;;;;;;;14.45;4.80;;;;;;;;;;4917426;28;97742;-71
2021/12/05 04:25:19;;;;;;;22.95;5.40;;;;;;;;;;4899686;28;101258;-72
2021/12/05 04:27:46;;;;;;;11.57;4.40;;;;;;;;;;4899370;28;102649;-72
2021/12/05 04:30:15;;;;;;;16.27;4.88;;;;;;;;;;4899148;28;99187;-72
2021/12/05 04:32:42;;;;;;;9.30;4.40;;;;;;;;;;4902554;28;102281;-71
2021/12/05 04:35:09;;;;;;;14.52;5.20;;;;;;;;;;4916325;28;98459;-72
2021/12/05 04:37:35;;;;;;;17.02;4.63;;;;;;;;;;4899478;28;101684;-71
2021/12/05 04:40:03;;;;;;;15.20;5.13;;;;;;;;;;4898944;28;101785;-72
2021/12/05 04:42:31;;;;;;;15.40;5.20;;;;;;;;;;4899364;28;98465;-73
2021/12/05 04:44:59;;;;;;;13.27;4.60;;;;;;;;;;4899405;28;102346;-72
2021/12/05 04:47:26;;;;;;;19.02;4.63;;;;;;;;;;4917019;28;99102;-72
2021/12/05 04:49:54;;;;;;;18.00;4.95;;;;;;;;;;4898913;28;98482;-71
2021/12/05 04:52:22;;;;;;;22.98;5.25;;;;;;;;;;4899138;28;101451;-72
2021/12/05 04:54:48;;;;;;;6.68;4.75;;;;;;;;;;4901549;28;101496;-72
2021/12/05 04:57:14;;;;;;;15.30;4.60;;;;;;;;;;4899165;28;102076;-71
2021/12/05 04:59:47;;;;;;;14.57;5.25;;;;;;;;;;4899034;28;102237;-71
2021/12/05 05:02:14;;;;;;;13.98;4.93;;;;;;;;;;4915974;28;98502;-71
2021/12/05 05:04:45;;;;;;;14.60;4.82;;;;;;;;;;4916498;28;99280;-72
2021/12/05 05:07:18;;;;;;;12.73;4.97;;;;;;;;;;4916082;28;99913;-71
2021/12/05 05:09:46;;;;;;;16.88;5.22;;;;;;;;;;4916306;28;98448;-72
2021/12/05 05:12:12;;;;;;;10.70;4.72;;;;;;;;;;4916928;28;99458;-74
2021/12/05 05:14:39;;;;;;;21.80;5.65;;;;;;;;;;4915381;28;99874;-72
2021/12/05 05:17:06;;;;;;;12.43;5.30;;;;;;;;;;4918646;28;98473;-72
2021/12/05 05:19:38;;;;;;;16.20;5.88;;;;;;;;;;4915405;28;100454;-71
2021/12/05 05:27:45;;;;;;;14.88;6.13;;;;;;;;;;4915556;28;99655;-72
2021/12/05 05:30:31;;;;;;;;;;;;;;;;;;4915224;28;98398;-72
2021/12/05 05:46:26;;;;;;;20.95;6.75;;;;;;;;;;4898074;28;102287;-72
2021/12/05 05:49:11;;;;;;;11.40;6.57;;;;;;;;;;4915533;28;99661;-73
2021/12/05 05:51:37;;;;;;;20.27;6.97;;;;;;;;;;4915651;28;98461;-71
2021/12/05 05:54:04;;;;;;;16.65;7.25;;;;;;;;;;4915799;28;99898;-72
2021/12/05 05:56:33;;;;;;;12.35;6.00;;;;;;;;;;4914801;28;99996;-72
2021/12/05 05:59:17;;;;;;;14.48;6.90;;;;;;;;;;4915538;28;98482;-72
2021/12/05 06:04:17;;;;;;;21.52;7.80;;;;;;;;;;4910077;28;97783;-73
2021/12/05 06:06:49;;;;;;;17.75;7.68;;;;;;;;;;4877196;28;98408;-72
2021/12/05 06:09:16;;;;;;;15.45;7.18;;;;;;;;;;4876374;28;99126;-71
2021/12/05 06:11:42;;;;;;;12.82;7.68;;;;;;;;;;4876730;28;99145;-72
2021/12/05 06:14:09;;;;;;;16.00;7.72;;;;;;;;;;4875557;28;100006;-73
2021/12/05 06:16:36;;;;;;;19.55;7.97;;;;;;;;;;4874330;28;99276;-74
2021/12/05 06:19:02;;;;;;;14.38;8.30;;;;;;;;;;4874613;28;98402;-71
2021/12/05 06:21:29;;;;;;;13.77;7.72;;;;;;;;;;4876782;28;99004;-72
2021/12/05 06:23:55;;;;;;;12.93;7.55;;;;;;;;;;4879317;28;100153;-70
2021/12/05 06:26:22;;;;;;;16.00;8.77;;;;;;;;;;4876985;28;98733;-72
2021/12/05 06:29:02;;;;;;;19.10;8.20;;;;;;;;;;4875730;28;98593;-72
2021/12/05 06:39:49;;;;;;;18.48;8.25;;;;;;;;;;4876731;28;99391;-71
2021/12/05 06:42:33;;;;;;;15.98;8.30;;;;;;;;;;4876486;28;99374;-73
2021/12/05 06:47:45;;;;;;;19.40;8.80;;;;;;;;;;4879912;28;98419;-72
2021/12/05 06:50:11;;;;;;;14.02;8.68;;;;;;;;;;4876218;28;99642;-71
2021/12/05 06:52:41;;;;;;;14.10;8.70;;;;;;;;;;4876464;28;98381;-72
2021/12/05 06:55:08;;;;;;;15.20;8.68;;;;;;;;;;4877192;28;99539;-73
2021/12/05 06:57:34;;;;;;;13.88;8.57;;;;;;;;;;4875627;28;99607;-72
2021/12/05 07:00:05;;;;;;;14.70;8.27;;;;;;;;;;4876393;28;98459;-72
2021/12/05 07:02:32;;;;;;;16.23;9.10;;;;;;;;;;4875955;28;99153;-72
2021/12/05 07:07:35;;;;;;;20.25;8.73;;;;;;;;;;4876501;28;98400;-72
2021/12/05 07:10:02;;;;;;;14.83;9.07;;;;;;;;;;4879199;28;99923;-73
2021/12/05 07:20:03;;;;;;;20.98;9.38;;;;;;;;;;4876211;28;97702;-72
2021/12/05 07:22:42;;;;;;;16.38;9.38;;;;;;;;;;4876122;28;99204;-72
2021/12/05 07:25:24;;;;;;;15.73;9.05;;;;;;;;;;4875885;28;100179;-72
2021/12/05 07:41:48;;;;;;;14.38;8.95;;;;;;;;;;4876211;28;98388;-70
2021/12/05 07:44:15;;;;;;;13.88;8.90;;;;;;;;;;4875873;28;98984;-70
2021/12/05 07:46:42;;;;;;;13.23;9.20;;;;;;;;;;4876049;28;98979;-71
2021/12/05 07:49:10;;;;;;;9.68;8.68;;;;;;;;;;4875761;28;98495;-74
2021/12/05 07:51:41;;;;;;;17.25;9.07;;;;;;;;;;4858753;28;100238;-72
2021/12/05 07:54:18;;;;;;;14.02;9.15;;;;;;;;;;4880517;28;100443;-74
2021/12/05 07:57:00;;;;;;;13.20;9.60;;;;;;;;;;4879172;28;100041;-71
2021/12/05 07:59:46;;;;;;;12.05;9.63;;;;;;;;;;4878258;28;99660;-73
2021/12/05 08:16:06;;;;;;;11.95;9.50;;;;;;;;;;4878125;28;99817;-72
2021/12/05 08:18:33;;;;;;;13.77;9.18;;;;;;;;;;4881932;28;98484;-71
2021/12/05 08:21:00;;;;;;;11.93;9.85;;;;;;;;;;4876951;28;100418;-72
2021/12/05 08:23:27;;;;;;;13.80;9.63;;;;;;;;;;4878823;28;98257;-71
2021/12/05 08:26:02;;;;;;;9.63;8.68;;;;;;;;;;4878563;28;99396;-70
2021/12/05 08:28:52;;;;;;;9.38;8.35;;;;;;;;;;4876822;28;102298;-72
2021/12/05 08:39:22;;;;;;;12.32;9.27;;;;;;;;;;4878654;28;97706;-71
2021/12/05 09:25:35;;;;;;;13.68;9.20;;;;;;;;;;4876597;28;100578;-71
2021/12/05 09:39:41;;;;;;;13.30;9.35;;;;;;;;;;4876918;28;99531;-71
2021/12/05 09:53:31;;;;;;;13.32;10.07;;;;;;;;;;4880309;28;100012;-71
2021/12/05 10:07:16;;;;;;;17.88;10.50;;;;;;;;;;4876612;28;98437;-71
2021/12/05 10:10:15;;;;;;;12.25;10.80;;;;;;;;;;4876265;28;99192;-71
2021/12/05 10:13:02;;;;;;;17.63;11.60;;;;;;;;;;4876172;28;99683;-71
2021/12/05 10:34:26;;;;;;;17.35;12.65;;;;;;;;;;4890953;28;99919;-70
2021/12/05 10:37:06;;;;;;;15.65;12.63;;;;;;;;;;4894610;28;99022;-71
2021/12/05 10:39:33;;;;;;;22.90;15.93;;;;;;;;;;4894339;28;100637;-71
2021/12/05 10:42:12;;;;;;;16.67;13.05;;;;;;;;;;4898033;28;99708;-70
2021/12/05 10:44:42;;;;;;;20.10;12.68;;;;;;;;;;4894856;28;99673;-70
2021/12/05 10:47:09;;;;;;;20.83;14.18;;;;;;;;;;4894588;28;99563;-70
2021/12/05 10:49:36;;;;;;;15.38;12.90;;;;;;;;;;4894761;28;98449;-71
2021/12/05 10:52:03;;;;;;;15.85;13.13;;;;;;;;;;4894274;28;99949;-71
2021/12/05 10:54:30;;;;;;;19.02;14.65;;;;;;;;;;4894725;28;99288;-70
2021/12/05 10:57:01;;;;;;;18.33;14.70;;;;;;;;;;4894565;28;98490;-70
2021/12/05 10:59:37;;;;;;;20.10;13.95;;;;;;;;;;4894495;28;98845;-70
2021/12/05 11:02:09;;;;;;;19.75;13.30;;;;;;;;;;4893705;28;100460;-70
2021/12/05 11:04:44;;;;;;;18.60;13.95;;;;;;;;;;4897220;28;99626;-70
2021/12/05 11:07:11;;;;;;;18.13;13.32;;;;;;;;;;4894858;28;99123;-70
2021/12/05 11:09:38;;;;;;;18.55;14.18;;;;;;;;;;4894527;28;98366;-70
2021/12/05 11:12:08;;;;;;;18.40;13.43;;;;;;;;;;4894439;28;99485;-71
2021/12/05 11:14:36;;;;;;;19.30;14.57;;;;;;;;;;4893704;28;100439;-70
2021/12/05 11:17:05;;;;;;;18.73;12.73;;;;;;;;;;4893977;28;98442;-70
2021/12/05 11:19:42;;;;;;;17.63;13.48;;;;;;;;;;4895257;28;98480;-71
2021/12/05 11:22:10;;;;;;;17.75;12.57;;;;;;;;;;4893910;28;99663;-71
2021/12/05 11:24:53;;;;;;;17.48;13.40;;;;;;;;;;4894505;28;98346;-73
2021/12/05 11:27:29;;;;;;;19.48;13.35;;;;;;;;;;4896319;28;99006;-71
2021/12/05 11:29:59;;;;;;;18.33;13.25;;;;;;;;;;4897935;28;98475;-71
2021/12/05 11:32:55;;;;;;;18.23;13.60;;;;;;;;;;4898213;28;99574;-69
2021/12/05 11:35:35;;;;;;;18.98;13.38;;;;;;;;;;4864255;28;102347;-72
2021/12/05 11:38:24;;;;;;;17.70;14.32;;;;;;;;;;4897308;28;98463;-72
2021/12/05 11:40:53;;;;;;;17.25;12.82;;;;;;;;;;4880273;28;100455;-71
2021/12/05 11:43:27;;;;;;;18.05;13.02;;;;;;;;;;4897189;28;99728;-71
2021/12/05 11:45:57;;;;;;;16.42;13.57;;;;;;;;;;4898149;28;97562;-71
2021/12/05 11:48:29;;;;;;;24.30;15.85;;;;;;;;;;4896921;28;98954;-71
2021/12/05 11:50:56;;;;;;;18.63;13.95;;;;;;;;;;4900369;28;99794;-71
2021/12/05 11:53:35;;;;;;;15.50;13.05;;;;;;;;;;4896843;28;99171;-70
2021/12/05 11:56:02;;;;;;;18.63;13.85;;;;;;;;;;4897114;28;100037;-70
2021/12/05 11:58:28;;;;;;;18.50;14.13;;;;;;;;;;4847278;28;99588;-70
2021/12/05 12:01:00;;;;;;;16.25;13.35;;;;;;;;;;4897157;28;99611;-71
2021/12/05 12:03:31;;;;;;;19.70;13.07;;;;;;;;;;4896737;28;98682;-71
2021/12/05 12:05:58;;;;;;;16.23;12.57;;;;;;;;;;4897099;28;98482;-72
2021/12/05 12:08:25;;;;;;;14.55;12.07;;;;;;;;;;4897315;28;99281;-71
2021/12/05 12:10:57;;;;;;;16.80;13.10;;;;;;;;;;4900499;28;98918;-72
2021/12/05 12:13:27;;;;;;;15.88;12.52;;;;;;;;;;4896621;28;99149;-71
2021/12/05 12:16:02;;;;;;;16.63;12.52;;;;;;;;;;4896752;28;99438;-71
2021/12/05 12:18:32;;;;;;;14.98;12.02;;;;;;;;;;4896146;28;99276;-70
2021/12/05 12:21:00;;;;;;;16.60;12.85;;;;;;;;;;4896767;28;101496;-71
2021/12/05 12:23:27;;;;;;;19.15;13.73;;;;;;;;;;4896434;28;100117;-70
2021/12/05 12:25:56;;;;;;;16.35;12.80;;;;;;;;;;4896664;28;98419;-70
2021/12/05 12:28:23;;;;;;;15.40;11.75;;;;;;;;;;4896666;28;101692;-70
2021/12/05 12:30:52;;;;;;;15.38;12.43;;;;;;;;;;4895883;28;100019;-70
2021/12/05 12:33:30;;;;;;;14.45;11.18;;;;;;;;;;4900236;28;98447;-70
2021/12/05 12:35:57;;;;;;;17.05;12.13;;;;;;;;;;4897149;28;98898;-70
2021/12/05 12:38:32;;;;;;;15.50;11.88;;;;;;;;;;4885388;28;98593;-70
2021/12/05 12:41:20;;;;;;;15.68;11.95;;;;;;;;;;4877332;28;98818;-70
2021/12/05 12:43:58;;;;;;;13.55;10.88;;;;;;;;;;4876544;28;100507;-70
2021/12/05 12:46:30;;;;;;;13.77;11.65;;;;;;;;;;4877224;28;98488;-70
2021/12/05 12:49:22;;;;;;;15.30;12.05;;;;;;;;;;4877437;28;98991;-70
2021/12/05 12:52:02;;;;;;;16.25;11.80;;;;;;;;;;4877006;28;99902;-72
2021/12/05 12:54:28;;;;;;;15.73;11.73;;;;;;;;;;4877378;28;98398;-70
2021/12/05 12:56:59;;;;;;;14.43;11.40;;;;;;;;;;4880495;28;100002;-71
2021/12/05 12:59:29;;;;;;;15.25;11.88;;;;;;;;;;4877832;28;99116;-71
2021/12/05 13:02:28;;;;;;;13.90;11.45;;;;;;;;;;4877925;28;99409;-70
2021/12/05 13:10:11;;;;;;;15.23;11.70;;;;;;;;;;4876867;28;100369;-70
2021/12/05 13:12:48;;;;;;;14.05;11.60;;;;;;;;;;4876649;28;99918;-70
2021/12/05 13:15:24;;;;;;;13.75;11.70;;;;;;;;;;4877262;28;98401;-70
2021/12/05 13:17:52;;;;;;;13.23;11.55;;;;;;;;;;4877054;28;99608;-71
2021/12/05 13:20:27;;;;;;;14.10;11.88;;;;;;;;;;4879813;28;99790;-71
2021/12/05 13:23:12;;;;;;;12.95;11.55;;;;;;;;;;4860318;28;101301;-71
2021/12/05 13:25:59;;;;;;;12.85;11.45;;;;;;;;;;4876641;28;99844;-71
2021/12/05 13:28:26;;;;;;;13.23;11.75;;;;;;;;;;4877135;28;97786;-71
2021/12/05 13:30:53;;;;;;;13.77;11.50;;;;;;;;;;4877030;28;98562;-71
2021/12/05 13:33:21;;;;;;;13.95;11.73;;;;;;;;;;4876718;28;99217;-71
2021/12/05 13:35:48;;;;;;;15.10;12.05;;;;;;;;;;4876463;28;99106;-70
2021/12/05 13:38:34;;;;;;;14.50;11.20;;;;;;;;;;4876777;28;99207;-71
2021/12/05 13:41:11;;;;;;;15.48;11.55;;;;;;;;;;4876061;28;100053;-71
2021/12/05 13:43:38;;;;;;;12.90;11.15;;;;;;;;;;4880005;28;98349;-71
2021/12/05 13:46:23;;;;;;;15.60;11.98;;;;;;;;;;4876397;28;99632;-71
2021/12/05 13:48:50;;;;;;;12.60;10.63;;;;;;;;;;4876593;28;98433;-70
2021/12/05 13:51:22;;;;;;;12.77;10.95;;;;;;;;;;4875572;28;100068;-71
2021/12/05 13:53:51;;;;;;;14.55;12.13;;;;;;;;;;4876959;28;99108;-70
2021/12/05 13:56:23;;;;;;;13.00;11.63;;;;;;;;;;4876815;28;99370;-70
2021/12/05 13:58:51;;;;;;;14.93;11.13;;;;;;;;;;4876700;28;99452;-69
2021/12/05 14:01:29;;;;;;;12.77;11.45;;;;;;;;;;4875671;28;100313;-70
2021/12/05 14:04:05;;;;;;;13.73;11.60;;;;;;;;;;4876294;28;99277;-71
2021/12/05 14:06:39;;;;;;;12.27;10.95;;;;;;;;;;4879448;28;99675;-73
2021/12/05 14:09:10;;;;;;;12.20;10.85;;;;;;;;;;4876436;28;98371;-73
2021/12/05 14:11:57;;;;;;;12.07;10.80;;;;;;;;;;4876389;28;99643;-73
2021/12/05 14:14:29;;;;;;;11.55;10.30;;;;;;;;;;4886765;28;102246;-72
2021/12/05 14:16:55;;;;;;;;;;;;;;;;;;4875334;28;98681;-73
2021/12/05 14:19:23;;;;;;;10.32;9.30;;;;;;;;;;4876726;28;127916;-72
2021/12/05 14:21:50;;;;;;;11.25;10.05;;;;;;;;;;4876653;28;99775;-71
2021/12/05 14:24:18;;;;;;;11.63;10.43;;;;;;;;;;4876171;28;101043;-70
2021/12/05 14:26:46;;;;;;;11.60;10.40;;;;;;;;;;4878039;28;99642;-70
2021/12/05 14:29:16;;;;;;;11.50;10.20;;;;;;;;;;4875939;28;98365;-70
2021/12/05 14:31:44;;;;;;;12.00;10.85;;;;;;;;;;4876061;28;99621;-70
2021/12/05 14:34:11;;;;;;;14.20;10.40;;;;;;;;;;4875426;28;100051;-70
2021/12/05 14:36:42;;;;;;;11.35;10.18;;;;;;;;;;4876207;28;98563;-70
2021/12/05 14:39:15;;;;;;;12.70;10.13;;;;;;;;;;4877702;28;99783;-71
2021/12/05 14:41:43;;;;;;;10.55;9.57;;;;;;;;;;4894771;28;100146;-71
2021/12/05 14:44:09;;;;;;;11.55;10.35;;;;;;;;;;4896254;28;97817;-71
2021/12/05 14:47:05;;;;;;;11.35;10.35;;;;;;;;;;4894899;28;99177;-71
2021/12/05 14:49:34;;;;;;;12.05;10.60;;;;;;;;;;4875662;28;99961;-72
2021/12/05 14:52:01;;;;;;;12.82;10.52;;;;;;;;;;4893775;28;99189;-70
2021/12/05 14:54:31;;;;;;;11.52;10.32;;;;;;;;;;4894945;28;99425;-71
2021/12/05 14:56:57;;;;;;;12.40;10.60;;;;;;;;;;4894608;28;98434;-72
2021/12/05 14:59:24;;;;;;;11.73;10.52;;;;;;;;;;4894811;28;99872;-71
2021/12/05 15:01:53;;;;;;;12.13;10.88;;;;;;;;;;4893849;28;100848;-71
2021/12/05 15:04:22;;;;;;;12.50;11.30;;;;;;;;;;4894111;28;98921;-72
2021/12/05 15:06:48;;;;;;;11.13;10.13;;;;;;;;;;4894698;28;99384;-72
2021/12/05 15:09:18;;;;;;;13.85;11.93;;;;;;;;;;4893639;28;100241;-71
2021/12/05 15:11:49;;;;;;;15.80;14.10;;;;;;;;;;4897919;28;99060;-71
2021/12/05 15:14:17;;;;;;;12.93;11.63;;;;;;;;;;4894237;28;99558;-71
2021/12/05 15:16:50;;;;;;;11.70;10.38;;;;;;;;;;4893875;28;99349;-73
2021/12/05 15:19:17;;;;;;;12.93;11.63;;;;;;;;;;4894507;28;100223;-71
2021/12/05 15:21:43;;;;;;;14.27;12.77;;;;;;;;;;4877595;28;99626;-71
2021/12/05 15:24:14;;;;;;;14.38;11.80;;;;;;;;;;4889594;28;98467;-71
2021/12/05 15:26:40;;;;;;;11.60;10.40;;;;;;;;;;4868670;28;99667;-71
2021/12/05 15:29:10;;;;;;;12.70;11.40;;;;;;;;;;4884114;28;99325;-71
2021/12/05 15:31:52;;;;;;;13.90;12.03;;;;;;;;;;4884617;28;99172;-71
2021/12/05 15:34:33;;;;;;;14.35;12.90;;;;;;;;;;4886766;28;99194;-71
2021/12/05 15:37:00;;;;;;;;;;;;;;;;;;4884120;28;98819;-71
2021/12/05 15:39:29;;;;;;;16.55;12.52;;;;;;;;;;4884405;28;127538;-71
2021/12/05 15:41:57;;;;;;;21.63;14.43;;;;;;;;;;4883855;28;101314;-72
2021/12/05 15:44:24;;;;;;;29.58;19.77;;;;;;;;;;4882637;28;98358;-71
2021/12/05 15:46:58;;;;;;;24.98;18.98;;;;;;;;;;4889738;28;99529;-72
2021/12/05 15:49:25;;;;;;;24.98;18.27;;;;;;;;;;4894172;28;99693;-72
2021/12/05 15:51:58;;;;;;;20.90;17.20;;;;;;;;;;4894209;28;98238;-71
2021/12/05 15:54:25;;;;;;;23.15;17.95;;;;;;;;;;4893702;28;99521;-72
2021/12/05 15:57:02;;;;;;;18.25;14.43;;;;;;;;;;4897031;28;99745;-71
2021/12/05 15:59:35;;;;;;;16.65;13.73;;;;;;;;;;4894146;28;99516;-73
2021/12/05 16:02:07;;;;;;;15.48;13.50;;;;;;;;;;4892307;28;99723;-74
2021/12/05 16:04:33;;;;;;;17.88;13.88;;;;;;;;;;4893972;28;98548;-76
2021/12/05 16:07:00;;;;;;;15.80;13.68;;;;;;;;;;4893161;28;99237;-73
2021/12/05 16:09:27;;;;;;;15.63;13.93;;;;;;;;;;4893765;28;99797;-71
2021/12/05 16:12:04;;;;;;;16.52;14.63;;;;;;;;;;4894207;28;98413;-73
2021/12/05 16:14:35;;;;;;;21.52;15.70;;;;;;;;;;4895497;28;99375;-72
2021/12/05 16:17:11;;;;;;;20.98;17.30;;;;;;;;;;4896118;28;99806;-72
2021/12/05 16:19:38;;;;;;;19.42;16.48;;;;;;;;;;4900063;28;98416;-73
2021/12/05 16:22:19;;;;;;;;;;;;;;;;;;4897285;28;99699;-72
2021/12/05 16:24:46;;;;;;;18.45;14.35;;;;;;;;;;4897203;28;119614;-72
2021/12/05 16:27:12;;;;;;;23.33;16.73;;;;;;;;;;4897133;28;98824;-72
2021/12/05 16:29:38;;;;;;;22.45;17.30;;;;;;;;;;4896046;28;99801;-72
2021/12/05 16:32:05;;;;;;;21.23;16.38;;;;;;;;;;4896356;28;99114;-73
2021/12/05 16:34:32;;;;;;;23.33;15.88;;;;;;;;;;4896692;28;100262;-72
2021/12/05 16:37:02;;;;;;;19.23;14.93;;;;;;;;;;4896537;28;99654;-70
2021/12/05 16:39:31;;;;;;;18.58;15.85;;;;;;;;;;4900032;28;98225;-71
2021/12/05 16:41:59;;;;;;;21.23;17.17;;;;;;;;;;4896172;28;99872;-71
2021/12/05 16:44:27;;;;;;;20.50;17.02;;;;;;;;;;4896542;28;100337;-72
2021/12/05 16:46:57;;;;;;;20.88;17.88;;;;;;;;;;4896770;28;99030;-71
2021/12/05 16:49:26;;;;;;;19.95;16.75;;;;;;;;;;4896815;28;99024;-72
2021/12/05 16:51:52;;;;;;;21.35;15.75;;;;;;;;;;4879571;28;98577;-71
2021/12/05 16:54:25;;;;;;;19.65;13.77;;;;;;;;;;4896105;28;100034;-71
2021/12/05 16:57:01;;;;;;;24.00;17.92;;;;;;;;;;4895603;28;100223;-73
2021/12/05 16:59:37;;;;;;;15.35;13.65;;;;;;;;;;4896720;28;98389;-72
2021/12/05 17:02:15;;;;;;;21.13;14.82;;;;;;;;;;4885016;28;98959;-72
2021/12/05 17:04:57;;;;;;;19.02;15.30;;;;;;;;;;4876812;28;98379;-73
2021/12/05 17:07:44;;;;;;;21.13;15.65;;;;;;;;;;4895560;28;99369;-75
2021/12/05 17:10:20;;;;;;;23.73;15.30;;;;;;;;;;4895940;28;100282;-71
2021/12/05 17:12:47;;;;;;;19.45;15.48;;;;;;;;;;4896116;28;98503;-71
2021/12/05 17:15:16;;;;;;;17.80;14.02;;;;;;;;;;4895989;28;99535;-71
2021/12/05 17:17:49;;;;;;;17.92;14.73;;;;;;;;;;4895533;28;99227;-72
2021/12/05 17:20:29;;;;;;;18.00;15.18;;;;;;;;;;4896160;28;98294;-71
2021/12/05 17:23:10;;;;;;;18.50;16.00;;;;;;;;;;4895338;28;99482;-72
2021/12/05 17:25:38;;;;;;;20.33;16.13;;;;;;;;;;4898650;28;99226;-70
2021/12/05 17:28:07;;;;;;;20.40;17.25;;;;;;;;;;4868135;28;99455;-71
2021/12/05 17:30:35;;;;;;;20.58;16.50;;;;;;;;;;4876533;28;99781;-71
2021/12/05 17:33:03;;;;;;;22.10;16.15;;;;;;;;;;4877001;28;98380;-70
2021/12/05 17:35:30;;;;;;;18.75;15.32;;;;;;;;;;4876362;28;99375;-71
2021/12/05 17:37:58;;;;;;;19.30;15.75;;;;;;;;;;4876470;28;99114;-71
2021/12/05 17:40:30;;;;;;;22.33;17.08;;;;;;;;;;4877125;28;97820;-70
2021/12/05 17:42:56;;;;;;;20.83;16.73;;;;;;;;;;4876714;28;98649;-69
2021/12/05 17:45:23;;;;;;;20.90;16.58;;;;;;;;;;4876150;28;100097;-70
2021/12/05 17:47:49;;;;;;;18.88;15.93;;;;;;;;;;4879130;28;99112;-70
2021/12/05 17:50:20;;;;;;;17.13;15.27;;;;;;;;;;4876403;28;99144;-71
2021/12/05 17:52:48;;;;;;;18.33;14.90;;;;;;;;;;4876492;28;98883;-72
2021/12/05 17:55:24;;;;;;;19.10;14.68;;;;;;;;;;4876598;28;99729;-70
2021/12/05 17:58:22;;;;;;;21.10;16.20;;;;;;;;;;4876190;28;99752;-71
2021/12/05 18:00:57;;;;;;;20.83;15.77;;;;;;;;;;4875560;28;101516;-69
2021/12/05 18:03:24;;;;;;;20.23;15.65;;;;;;;;;;4876433;28;99429;-70
2021/12/05 18:05:51;;;;;;;19.35;16.13;;;;;;;;;;4876624;28;98046;-71
2021/12/05 18:08:20;;;;;;;26.13;18.83;;;;;;;;;;4875960;28;98490;-71
2021/12/05 18:10:53;;;;;;;18.85;15.90;;;;;;;;;;4879453;28;98922;-71
2021/12/05 18:13:23;;;;;;;21.52;15.93;;;;;;;;;;4868260;28;99574;-71
2021/12/05 18:15:57;;;;;;;23.27;18.48;;;;;;;;;;4857546;29;100353;-70
2021/12/05 18:18:24;;;;;;;18.58;16.08;;;;;;;;;;4857174;29;99157;-71
2021/12/05 18:20:50;;;;;;;24.80;17.88;;;;;;;;;;4856556;29;99319;-70
2021/12/05 18:23:17;;;;;;;22.55;16.60;;;;;;;;;;4857085;29;99051;-71
2021/12/05 18:25:43;;;;;;;23.33;16.67;;;;;;;;;;4856860;29;99169;-70
2021/12/05 18:28:10;;;;;;;20.05;16.15;;;;;;;;;;4857163;29;98344;-72
2021/12/05 18:30:37;;;;;;;19.75;16.13;;;;;;;;;;4860564;28;100001;-70
2021/12/05 18:33:05;;;;;;;20.80;16.30;;;;;;;;;;4857231;29;99185;-70
2021/12/05 18:35:32;;;;;;;24.65;17.13;;;;;;;;;;4856650;29;99573;-71
2021/12/05 18:38:07;;;;;;;20.33;15.50;;;;;;;;;;4855616;29;100293;-71
2021/12/05 18:40:35;;;;;;;21.50;17.38;;;;;;;;;;4857700;28;98593;-71
2021/12/05 18:43:01;;;;;;;24.58;18.98;;;;;;;;;;4883622;28;99453;-72
2021/12/05 18:45:31;;;;;;;26.27;18.48;;;;;;;;;;4881350;28;101514;-71
2021/12/05 18:47:58;;;;;;;24.60;19.15;;;;;;;;;;4871608;28;99075;-71
2021/12/05 18:50:24;;;;;;;24.67;18.63;;;;;;;;;;4879320;28;99666;-70
2021/12/05 18:52:50;;;;;;;24.77;18.23;;;;;;;;;;4888881;28;99722;-71
2021/12/05 18:55:17;;;;;;;25.00;18.27;;;;;;;;;;4884571;28;99510;-71
2021/12/05 18:57:48;;;;;;;26.23;16.90;;;;;;;;;;4884673;28;99584;-72
2021/12/05 19:00:26;;;;;;;22.50;17.20;;;;;;;;;;4882776;28;98413;-72
2021/12/05 19:05:55;;;;;;;26.15;17.73;;;;;;;;;;4881021;28;99575;-71
2021/12/05 19:13:39;;;;;;;28.40;19.48;;;;;;;;;;4889367;28;99209;-71
2021/12/05 19:16:06;;;;;;;24.65;18.88;;;;;;;;;;4904886;28;98486;-70
2021/12/05 19:18:33;;;;;;;25.83;18.95;;;;;;;;;;4898063;28;99204;-71
2021/12/05 19:21:00;;;;;;;25.45;19.30;;;;;;;;;;4905413;28;97795;-71
2021/12/05 19:23:26;;;;;;;28.70;19.60;;;;;;;;;;4902440;28;98699;-71
2021/12/05 19:25:54;;;;;;;28.40;19.42;;;;;;;;;;4902990;28;99594;-71
2021/12/05 19:28:20;;;;;;;30.38;20.25;;;;;;;;;;4879563;28;99263;-71
2021/12/05 19:30:51;;;;;;;25.27;19.33;;;;;;;;;;4897325;28;100176;-70
2021/12/05 19:33:19;;;;;;;28.33;19.75;;;;;;;;;;4900581;28;99212;-71
2021/12/05 19:35:46;;;;;;;28.38;19.52;;;;;;;;;;4902164;28;98616;-70